Latest Weather Observations for Cabramurra

IDN60801

Issued at 8:05 am EST Tuesday 23 September 2014 (issued every 30 minutes, with the page automatically refreshed every 10 minutes)

About weather observations | Map of weather stations | Latest weather observations for NSW | Other Formats
Station Details ID: 072161 Name: CABRAMURRA SMHEA AWS Lat: -35.94 Lon: 148.38 Height: 1482.4 m
Data from the previous 72 hours. | See also: Recent months at Cabramurra
Date/Time
EST
Temp
°C
App
Temp
°C
Dew
Point
Rel
Hum
%
Delta-T
°C
Wind Press
QNH
hPa
Press
MSL
hPa
Rain
since 9 am
mm
Dir
 
Spd
km/h
Gust
km/h
Spd
kts
Gust
kts
23/08:00am 8.4 4.7 0.1 56 3.6 WNW 9 13 5 7 - - 0.0
23/07:30am 7.8 4.5 0.1 58 3.3 WNW 7 9 4 5 - - 0.0
23/07:00am 7.3 4.9 -0.2 59 3.2 WNW 2 7 1 4 - - 0.0
23/06:30am 6.7 3.4 2.4 74 1.9 NW 9 9 5 5 - - 0.0
23/06:00am 6.3 3.1 3.1 80 1.5 WNW 9 9 5 5 - - 0.0
23/05:30am 6.9 4.1 3.3 78 1.7 NW 7 9 4 5 - - 0.0
23/05:00am 6.8 5.3 3.2 78 1.7 CALM 0 0 0 0 - - 0.0
23/04:30am 7.2 5.7 3.1 75 1.9 CALM 0 0 0 0 - - 0.0
23/04:00am 6.8 4.5 2.9 76 1.8 WNW 4 9 2 5 - - 0.0
23/03:30am 6.7 5.3 3.5 80 1.5 CALM 0 4 0 2 - - 0.0
23/03:00am 7.1 4.7 4.1 81 1.4 N 6 9 3 5 - - 0.0
23/02:30am 7.0 4.3 3.8 80 1.5 N 7 9 4 5 - - 0.0
23/02:00am 7.2 4.1 3.8 79 1.6 N 9 11 5 6 - - 0.0
23/01:30am 6.5 3.9 3.3 80 1.5 N 6 7 3 4 - - 0.0
23/01:00am 6.5 4.3 3.1 79 1.6 N 4 7 2 4 - - 0.0
23/12:30am 6.6 4.4 3.6 81 1.4 NE 4 6 2 3 - - 0.0
23/12:00am 6.3 3.4 2.8 78 1.6 NNE 7 9 4 5 - - 0.0
 
Date/Time
EST
Temp
°C
App
Temp
°C
Dew
Point
Rel
Hum
%
Delta-T
°C
Wind Press
QNH
hPa
Press
MSL
hPa
Rain
since 9 am
mm
Dir
 
Spd
km/h
Gust
km/h
Spd
kts
Gust
kts
22/11:30pm 6.7 3.9 3.0 77 1.7 N 7 9 4 5 - - 0.0
22/11:00pm 6.7 5.3 3.3 79 1.6 CALM 0 0 0 0 - - 0.0
22/10:30pm 7.2 5.9 4.3 82 1.4 CALM 0 0 0 0 - - 0.0
22/10:00pm 6.7 4.2 3.7 81 1.4 NNE 6 7 3 4 - - 0.0
22/09:30pm 7.1 5.4 4.2 82 1.4 NW 2 7 1 4 - - 0.0
22/09:00pm 7.2 5.8 3.8 79 1.6 CALM 0 0 0 0 - - 0.0
22/08:30pm 7.3 5.9 3.7 78 1.7 CALM 0 0 0 0 - - 0.0
22/08:00pm 7.6 6.3 4.0 78 1.7 CALM 0 0 0 0 - - 0.0
22/07:30pm 7.6 6.2 3.8 77 1.8 CALM 0 0 0 0 - - 0.0
22/07:00pm 7.8 6.4 3.5 74 2.0 CALM 0 6 0 3 - - 0.0
22/06:30pm 8.2 6.4 3.5 72 2.2 N 2 7 1 4 - - 0.0
22/06:00pm 9.3 6.6 3.7 68 2.7 W 7 11 4 6 - - 0.0
22/05:30pm 10.5 7.1 4.0 64 3.1 W 11 17 6 9 - - 0.0
22/05:00pm 11.3 7.9 4.1 61 3.5 W 11 17 6 9 - - 0.0
22/04:30pm 11.7 7.9 4.0 59 3.8 WNW 13 19 7 10 - - 0.0
22/04:00pm 11.7 8.0 4.2 60 3.7 W 13 22 7 12 - - 0.0
22/03:30pm 12.0 7.5 4.2 59 3.8 W 17 24 9 13 - - 0.0
22/03:00pm 12.4 8.9 5.6 63 3.5 W 13 20 7 11 - - 0.0
22/02:30pm 12.4 8.0 4.6 59 3.9 W 17 22 9 12 - - 0.0
22/02:00pm 12.8 8.5 3.5 53 4.5 W 15 20 8 11 - - 0.0
22/01:30pm 11.7 6.8 2.2 52 4.5 WNW 17 24 9 13 - - 0.0
22/01:00pm 12.4 8.4 2.8 52 4.6 W 13 19 7 10 - - 0.0
22/12:30pm 11.6 7.7 3.6 58 3.9 NW 13 20 7 11 - - 0.0
22/12:00pm 11.3 7.7 2.9 56 4.0 NW 11 20 6 11 - - 0.0
22/11:30am 11.7 8.4 4.4 61 3.6 NW 11 19 6 10 - - 0.0
22/11:00am 10.5 6.8 2.1 56 3.9 NW 11 19 6 10 - - 0.0
22/10:30am 10.1 6.0 2.5 59 3.5 WNW 13 15 7 8 - - 0.0
22/10:00am 9.6 6.3 2.7 62 3.2 NW 9 15 5 8 - - 0.0
22/09:30am 8.8 5.4 1.7 61 3.2 NW 9 13 5 7 - - 0.0
22/09:00am 8.5 5.0 1.4 61 3.2 WNW 9 11 5 6 - - 0.0
22/08:30am 7.9 4.8 1.3 63 2.9 NW 7 9 4 5 - - 0.0
22/08:00am 7.2 5.3 0.6 63 2.9 CALM 0 0 0 0 - - 0.0
22/07:30am 6.5 4.7 1.0 68 2.4 CALM 0 0 0 0 - - 0.0
22/07:00am 5.6 3.0 1.0 72 2.0 W 4 6 2 3 - - 0.0
22/06:30am 5.0 2.2 2.0 81 1.3 WSW 6 7 3 4 - - 0.0
22/06:00am 4.8 1.5 2.3 84 1.1 W 9 13 5 7 - - 0.0
22/05:30am 5.0 2.4 3.2 88 0.8 NNW 6 7 3 4 - - 0.0
22/05:00am 4.8 1.5 2.7 86 0.9 N 9 9 5 5 - - 0.0
22/04:30am 4.4 1.4 0.6 76 1.6 N 6 7 3 4 - - 0.0
22/04:00am 4.7 1.1 0.7 75 1.7 N 9 11 5 6 - - 0.0
22/03:30am 4.1 1.0 -0.1 74 1.7 NNE 6 7 3 4 - - 0.0
22/03:00am 4.4 2.3 -0.8 69 2.1 CALM 0 0 0 0 - - 0.0
22/02:30am 4.4 0.6 -0.8 69 2.1 E 9 11 5 6 - - 0.0
22/02:00am 4.2 -0.4 -1.2 68 2.2 E 13 17 7 9 - - 0.0
22/01:30am 4.7 -0.3 -1.1 66 2.4 ENE 15 20 8 11 - - 0.0
22/01:00am 4.4 -1.3 -1.0 68 2.2 ENE 19 28 10 15 - - 0.0
22/12:30am 4.3 -1.9 -0.5 71 2.0 E 22 28 12 15 - - 0.0
22/12:00am 4.3 -1.5 -0.3 72 1.9 E 20 30 11 16 - - 0.0
 
Date/Time
EST
Temp
°C
App
Temp
°C
Dew
Point
Rel
Hum
%
Delta-T
°C
Wind Press
QNH
hPa
Press
MSL
hPa
Rain
since 9 am
mm
Dir
 
Spd
km/h
Gust
km/h
Spd
kts
Gust
kts
21/11:30pm 4.2 -3.1 -0.2 73 1.8 E 28 35 15 19 - - 0.0
21/11:00pm 4.3 -1.5 -1.3 67 2.3 ESE 19 32 10 17 - - 0.0
21/10:30pm 5.1 -2.8 -1.3 63 2.6 E 30 39 16 21 - - 0.0
21/10:00pm 5.0 -3.5 -1.7 62 2.7 E 33 39 18 21 - - 0.0
21/09:30pm 5.2 -2.3 -1.5 62 2.7 E 28 33 15 18 - - 0.0
21/09:00pm 5.5 -1.2 -1.2 62 2.8 E 24 32 13 17 - - 0.0
21/08:30pm 6.4 -0.7 -1.2 58 3.1 E 26 35 14 19 - - 0.0
21/08:00pm 6.5 -1.6 -0.5 61 3.0 E 32 37 17 20 - - 0.0
21/07:30pm 6.7 0.9 0.2 63 2.8 ESE 20 30 11 16 - - 0.0
21/07:00pm 7.1 2.0 0.8 64 2.8 ESE 17 24 9 13 - - 0.0
21/06:30pm 6.8 3.2 0.9 66 2.6 SSE 9 11 5 6 - - 0.0
21/06:00pm 7.0 3.3 0.0 61 3.0 S 9 11 5 6 - - 0.0
21/05:30pm 8.6 5.0 0.8 58 3.5 WSW 9 17 5 9 - - 0.0
21/05:00pm 9.1 5.0 -0.2 52 4.1 W 11 15 6 8 - - 0.0
21/04:30pm 10.0 5.1 -0.2 49 4.5 W 15 20 8 11 - - 0.0
21/04:00pm 9.8 4.7 -1.9 44 4.9 WNW 15 22 8 12 - - 0.0
21/03:30pm 10.7 5.3 -1.4 43 5.2 WNW 17 24 9 13 - - 0.0
21/03:00pm 10.2 4.7 -2.4 41 5.3 WNW 17 24 9 13 - - 0.0
21/02:30pm 10.2 4.7 -2.4 41 5.3 W 17 24 9 13 - - 0.0
21/02:00pm 10.3 5.4 -0.8 46 4.8 W 15 24 8 13 - - 0.0
21/01:30pm 10.0 4.9 0.6 52 4.2 WNW 17 24 9 13 - - 0.0
21/01:00pm 9.6 4.6 1.5 57 3.7 W 17 26 9 14 - - 0.0
21/12:30pm 9.4 4.7 0.8 55 3.8 W 15 24 8 13 - - 0.0
21/12:00pm 9.4 4.8 1.8 59 3.5 W 15 20 8 11 - - 0.0
21/11:30am 8.9 5.2 2.3 63 3.0 W 11 19 6 10 - - 0.0
21/11:00am 8.1 4.3 1.9 65 2.8 WNW 11 17 6 9 - - 0.0
21/10:30am 7.5 3.3 1.6 66 2.6 WNW 13 20 7 11 - - 0.0
21/10:00am 6.8 2.5 1.1 67 2.5 WNW 13 19 7 10 - - 0.0
21/09:30am 7.0 3.7 2.3 72 2.1 WNW 9 13 5 7 - - 0.0
21/09:00am 5.8 2.3 1.0 71 2.1 WNW 9 13 5 7 - - 0.0
21/08:30am 5.6 2.0 0.4 69 2.2 NW 9 11 5 6 - - 0.0
21/08:00am 5.2 1.7 1.0 74 1.8 SSW 9 13 5 7 - - 0.0
21/07:30am 4.3 0.7 0.3 75 1.7 SW 9 13 5 7 - - 0.0
21/07:00am 3.3 -1.2 0.0 79 1.4 SSW 13 15 7 8 - - 0.0
21/06:30am 3.1 -1.0 -0.2 79 1.4 SSW 11 15 6 8 - - 0.0
21/06:00am 2.8 -1.7 0.0 82 1.2 SSW 13 17 7 9 - - 0.0
21/05:30am 3.1 -0.5 0.3 82 1.2 SSW 9 13 5 7 - - 0.0
21/05:00am 2.9 -0.8 0.0 81 1.2 SW 9 13 5 7 - - 0.0
21/04:30am 3.0 -0.7 0.2 82 1.2 SSW 9 11 5 6 - - 0.0
21/04:00am 3.0 -0.3 0.1 81 1.2 SSW 7 7 4 4 - - 0.0
21/03:30am 3.1 0.1 0.5 83 1.1 SSW 6 7 3 4 - - 0.0
21/03:00am 3.0 0.4 0.7 85 1.0 S 4 7 2 4 - - 0.0
21/02:30am 2.5 -0.7 0.9 89 0.7 ESE 7 9 4 5 - - 0.0
21/02:00am 2.1 -1.9 0.6 90 0.6 ESE 11 13 6 7 - - 0.0
21/01:30am 1.7 -2.7 0.5 92 0.5 E 13 17 7 9 - - 0.0
21/01:00am 2.0 -3.1 0.5 90 0.6 E 17 20 9 11 - - 0.0
21/12:30am 2.1 -3.4 0.6 90 0.6 E 19 26 10 14 - - 0.0
21/12:00am 2.2 -2.9 0.6 89 0.7 E 17 24 9 13 - - 0.0
 
Date/Time
EST
Temp
°C
App
Temp
°C
Dew
Point
Rel
Hum
%
Delta-T
°C
Wind Press
QNH
hPa
Press
MSL
hPa
Rain
since 9 am
mm
Dir
 
Spd
km/h
Gust
km/h
Spd
kts
Gust
kts
20/11:30pm 2.3 -4.1 0.8 90 0.6 E 24 35 13 19 - - 0.0
20/11:00pm 2.6 -3.1 0.8 88 0.8 E 20 28 11 15 - - 0.0
20/10:30pm 2.7 -3.3 0.8 87 0.8 E 22 30 12 16 - - 0.0
20/10:00pm 2.8 -3.6 0.9 87 0.8 E 24 32 13 17 - - 0.0
20/09:30pm 3.0 -3.8 0.6 84 1.0 E 26 35 14 19 - - 0.0
20/09:00pm 3.5 -4.1 0.6 81 1.2 E 30 41 16 22 - - 0.0
20/08:30pm 3.8 -3.5 0.3 78 1.5 E 28 35 15 19 - - 0.0
20/08:00pm 4.2 -3.0 0.5 77 1.6 E 28 35 15 19 - - 0.0
20/07:30pm 4.6 -3.0 0.6 75 1.7 E 30 39 16 21 - - 0.0
20/07:00pm 5.1 -2.1 0.5 72 2.0 ESE 28 35 15 19 - - 0.0
20/06:30pm 5.8 -0.3 0.4 68 2.3 E 22 30 12 16 - - 0.0
20/06:00pm 6.6 3.7 -7.7 35 5.1 CALM 0 0 0 0 - - 0.0
20/05:30pm 8.2 4.2 -7.5 32 5.7 W 6 9 3 5 - - 0.0
20/05:00pm 8.9 4.3 -7.7 30 6.1 WSW 9 17 5 9 - - 0.0
20/04:30pm 9.1 4.1 -8.4 28 6.3 WNW 11 17 6 9 - - 0.0
20/04:00pm 9.4 3.7 -7.7 29 6.3 WNW 15 22 8 12 - - 0.0
20/03:30pm 9.5 3.8 -7.2 30 6.2 W 15 22 8 12 - - 0.0
20/03:00pm 9.7 3.7 -6.6 31 6.2 W 17 24 9 13 - - 0.0
20/02:30pm 9.7 4.2 -5.4 34 5.9 W 15 24 8 13 - - 0.0
20/02:00pm 9.3 3.4 -5.4 35 5.7 WNW 17 26 9 14 - - 0.0
20/01:30pm 9.2 3.9 -3.3 41 5.1 W 15 24 8 13 - - 0.0
20/01:00pm 9.8 4.2 -3.1 40 5.3 WNW 17 28 9 15 - - 0.0
20/12:30pm 9.9 4.5 -4.8 35 5.8 W 15 20 8 11 - - 0.0
20/12:00pm 8.7 3.4 -3.2 43 4.8 WNW 15 20 8 11 - - 0.0
20/11:30am 8.3 3.4 -3.2 44 4.6 W 13 19 7 10 - - 0.0
20/11:00am 8.4 3.5 -3.1 44 4.6 NW 13 19 7 10 - - 0.0
20/10:30am 7.7 3.6 -2.9 47 4.3 NW 9 15 5 8 - - 0.0
20/10:00am 7.1 2.9 -8.1 33 5.4 W 7 11 4 6 - - 0.0
20/09:30am 6.5 1.8 -9.4 31 5.4 SSW 9 13 5 7 - - 0.0
20/09:00am 5.8 1.7 -6.7 40 4.5 SW 7 9 4 5 - - 0.0
20/08:30am 4.8 0.4 -10.1 33 5.1 SW 7 9 4 5 - - 0.0

Other Formats:

Comma delimited format used in spreadsheet applications
http://www.bom.gov.au/fwo/IDN60801/IDN60801.95916.axf

JavaScript Object Notation format (JSON) in row-major order
http://www.bom.gov.au/fwo/IDN60801/IDN60801.95916.json